sensor_id;sensor_type;location;lat;lon;timestamp;temperature;humidity
42913;DHT22;50720;54.324;18.558;2023-06-19T00:01:50;15.10;99.90
42913;DHT22;50720;54.324;18.558;2023-06-19T00:04:22;15.10;99.90
42913;DHT22;50720;54.324;18.558;2023-06-19T00:06:51;15.10;99.90
42913;DHT22;50720;54.324;18.558;2023-06-19T00:09:20;15.10;99.90
42913;DHT22;50720;54.324;18.558;2023-06-19T00:11:49;15.10;99.90
42913;DHT22;50720;54.324;18.558;2023-06-19T00:14:19;15.10;99.90
42913;DHT22;50720;54.324;18.558;2023-06-19T00:16:48;15.10;99.90
42913;DHT22;50720;54.324;18.558;2023-06-19T00:19:19;15.10;99.90
42913;DHT22;50720;54.324;18.558;2023-06-19T00:21:49;15.00;99.90
42913;DHT22;50720;54.324;18.558;2023-06-19T00:24:18;14.90;99.90
42913;DHT22;50720;54.324;18.558;2023-06-19T00:26:48;14.80;99.90
42913;DHT22;50720;54.324;18.558;2023-06-19T00:29:17;14.90;99.90
42913;DHT22;50720;54.324;18.558;2023-06-19T00:31:47;14.90;99.90
42913;DHT22;50720;54.324;18.558;2023-06-19T00:34:16;14.90;99.90
42913;DHT22;50720;54.324;18.558;2023-06-19T00:36:45;14.80;99.90
42913;DHT22;50720;54.324;18.558;2023-06-19T00:39:16;14.80;99.90
42913;DHT22;50720;54.324;18.558;2023-06-19T00:41:45;14.80;99.90
42913;DHT22;50720;54.324;18.558;2023-06-19T00:44:15;14.80;99.90
42913;DHT22;50720;54.324;18.558;2023-06-19T00:46:45;14.70;99.90
42913;DHT22;50720;54.324;18.558;2023-06-19T00:49:14;14.70;99.90
42913;DHT22;50720;54.324;18.558;2023-06-19T00:51:43;14.70;99.90
42913;DHT22;50720;54.324;18.558;2023-06-19T00:54:14;14.60;99.90
42913;DHT22;50720;54.324;18.558;2023-06-19T00:56:46;14.60;99.90
42913;DHT22;50720;54.324;18.558;2023-06-19T00:59:17;14.50;99.90
42913;DHT22;50720;54.324;18.558;2023-06-19T01:01:46;14.50;99.90
42913;DHT22;50720;54.324;18.558;2023-06-19T01:04:15;14.40;99.90
42913;DHT22;50720;54.324;18.558;2023-06-19T01:06:46;14.50;99.90
42913;DHT22;50720;54.324;18.558;2023-06-19T01:09:18;14.50;99.90
42913;DHT22;50720;54.324;18.558;2023-06-19T01:11:50;14.50;99.90
42913;DHT22;50720;54.324;18.558;2023-06-19T01:14:23;14.50;99.90
42913;DHT22;50720;54.324;18.558;2023-06-19T01:16:54;14.50;99.90
42913;DHT22;50720;54.324;18.558;2023-06-19T01:19:24;14.50;99.90
42913;DHT22;50720;54.324;18.558;2023-06-19T01:21:53;14.40;99.90
42913;DHT22;50720;54.324;18.558;2023-06-19T01:24:24;14.30;99.90
42913;DHT22;50720;54.324;18.558;2023-06-19T01:26:53;14.20;99.90
42913;DHT22;50720;54.324;18.558;2023-06-19T01:29:22;14.10;99.90
42913;DHT22;50720;54.324;18.558;2023-06-19T01:31:52;14.00;99.90
42913;DHT22;50720;54.324;18.558;2023-06-19T01:34:24;14.10;99.90
42913;DHT22;50720;54.324;18.558;2023-06-19T01:36:54;14.20;99.90
42913;DHT22;50720;54.324;18.558;2023-06-19T01:39:26;14.20;99.90
42913;DHT22;50720;54.324;18.558;2023-06-19T01:41:55;14.20;99.90
42913;DHT22;50720;54.324;18.558;2023-06-19T01:44:25;14.20;99.90
42913;DHT22;50720;54.324;18.558;2023-06-19T01:46:55;14.10;99.90
42913;DHT22;50720;54.324;18.558;2023-06-19T01:49:24;14.10;99.90
42913;DHT22;50720;54.324;18.558;2023-06-19T01:51:53;13.90;99.90
42913;DHT22;50720;54.324;18.558;2023-06-19T01:54:23;13.90;99.90
42913;DHT22;50720;54.324;18.558;2023-06-19T01:56:54;13.80;99.90
42913;DHT22;50720;54.324;18.558;2023-06-19T01:59:23;13.80;99.90
42913;DHT22;50720;54.324;18.558;2023-06-19T02:01:52;13.70;99.90
42913;DHT22;50720;54.324;18.558;2023-06-19T02:04:22;13.70;99.90
42913;DHT22;50720;54.324;18.558;2023-06-19T02:06:51;13.70;99.90
42913;DHT22;50720;54.324;18.558;2023-06-19T02:09:20;13.70;99.90
42913;DHT22;50720;54.324;18.558;2023-06-19T02:11:50;13.70;99.90
42913;DHT22;50720;54.324;18.558;2023-06-19T02:14:20;13.70;99.90
42913;DHT22;50720;54.324;18.558;2023-06-19T02:16:49;13.70;99.90
42913;DHT22;50720;54.324;18.558;2023-06-19T02:19:18;13.70;99.90
42913;DHT22;50720;54.324;18.558;2023-06-19T02:21:47;13.70;99.90
42913;DHT22;50720;54.324;18.558;2023-06-19T02:24:17;13.70;99.90
42913;DHT22;50720;54.324;18.558;2023-06-19T02:26:46;13.60;99.90
42913;DHT22;50720;54.324;18.558;2023-06-19T02:29:15;13.60;99.90
42913;DHT22;50720;54.324;18.558;2023-06-19T02:31:46;13.60;99.90
42913;DHT22;50720;54.324;18.558;2023-06-19T02:34:15;13.60;99.90
42913;DHT22;50720;54.324;18.558;2023-06-19T02:36:44;13.60;99.90
42913;DHT22;50720;54.324;18.558;2023-06-19T02:39:15;13.60;99.90
42913;DHT22;50720;54.324;18.558;2023-06-19T02:41:45;13.60;99.90
42913;DHT22;50720;54.324;18.558;2023-06-19T02:44:14;13.70;99.90
42913;DHT22;50720;54.324;18.558;2023-06-19T02:46:43;13.70;99.90
42913;DHT22;50720;54.324;18.558;2023-06-19T02:49:14;13.70;99.90
42913;DHT22;50720;54.324;18.558;2023-06-19T02:51:43;13.70;99.90
42913;DHT22;50720;54.324;18.558;2023-06-19T02:54:13;13.70;99.90
42913;DHT22;50720;54.324;18.558;2023-06-19T02:56:41;13.80;99.90
42913;DHT22;50720;54.324;18.558;2023-06-19T02:59:11;13.80;99.90
42913;DHT22;50720;54.324;18.558;2023-06-19T03:01:40;13.80;99.90
42913;DHT22;50720;54.324;18.558;2023-06-19T03:04:10;13.90;99.90
42913;DHT22;50720;54.324;18.558;2023-06-19T03:06:41;14.00;99.90
42913;DHT22;50720;54.324;18.558;2023-06-19T03:09:11;13.90;99.90
42913;DHT22;50720;54.324;18.558;2023-06-19T03:11:40;14.00;99.90
42913;DHT22;50720;54.324;18.558;2023-06-19T03:14:09;14.00;99.90
42913;DHT22;50720;54.324;18.558;2023-06-19T03:16:39;14.00;99.90
42913;DHT22;50720;54.324;18.558;2023-06-19T03:19:08;14.00;99.90
42913;DHT22;50720;54.324;18.558;2023-06-19T03:21:37;14.30;99.90
42913;DHT22;50720;54.324;18.558;2023-06-19T03:24:08;14.40;99.90
42913;DHT22;50720;54.324;18.558;2023-06-19T03:26:37;14.40;99.90
42913;DHT22;50720;54.324;18.558;2023-06-19T03:29:06;14.40;99.90
42913;DHT22;50720;54.324;18.558;2023-06-19T03:31:35;14.40;99.90
42913;DHT22;50720;54.324;18.558;2023-06-19T03:34:07;14.40;99.90
42913;DHT22;50720;54.324;18.558;2023-06-19T03:36:36;14.50;99.90
42913;DHT22;50720;54.324;18.558;2023-06-19T03:39:08;14.70;99.90
42913;DHT22;50720;54.324;18.558;2023-06-19T03:41:37;14.80;99.90
42913;DHT22;50720;54.324;18.558;2023-06-19T03:44:06;14.80;99.90
42913;DHT22;50720;54.324;18.558;2023-06-19T03:46:35;14.90;99.90
42913;DHT22;50720;54.324;18.558;2023-06-19T03:49:05;15.00;99.90
42913;DHT22;50720;54.324;18.558;2023-06-19T03:51:36;15.10;99.90
42913;DHT22;50720;54.324;18.558;2023-06-19T03:54:05;15.30;99.90
42913;DHT22;50720;54.324;18.558;2023-06-19T03:56:36;15.40;99.90
42913;DHT22;50720;54.324;18.558;2023-06-19T03:59:06;15.50;99.90
42913;DHT22;50720;54.324;18.558;2023-06-19T04:01:35;15.70;99.90
42913;DHT22;50720;54.324;18.558;2023-06-19T04:04:05;15.80;99.90
42913;DHT22;50720;54.324;18.558;2023-06-19T04:06:34;16.00;99.90
42913;DHT22;50720;54.324;18.558;2023-06-19T04:09:03;16.00;99.90
42913;DHT22;50720;54.324;18.558;2023-06-19T04:11:32;16.10;99.90
42913;DHT22;50720;54.324;18.558;2023-06-19T04:14:03;16.10;99.90
42913;DHT22;50720;54.324;18.558;2023-06-19T04:16:32;16.20;99.90
42913;DHT22;50720;54.324;18.558;2023-06-19T04:19:03;16.30;99.90
42913;DHT22;50720;54.324;18.558;2023-06-19T04:21:32;16.50;99.90
42913;DHT22;50720;54.324;18.558;2023-06-19T04:24:01;16.60;99.90
42913;DHT22;50720;54.324;18.558;2023-06-19T04:26:36;16.80;99.90
42913;DHT22;50720;54.324;18.558;2023-06-19T04:29:07;17.00;99.90
42913;DHT22;50720;54.324;18.558;2023-06-19T04:31:44;17.20;99.90
42913;DHT22;50720;54.324;18.558;2023-06-19T04:34:15;17.40;99.90
42913;DHT22;50720;54.324;18.558;2023-06-19T04:36:44;17.50;99.90
42913;DHT22;50720;54.324;18.558;2023-06-19T04:39:14;17.60;99.90
42913;DHT22;50720;54.324;18.558;2023-06-19T04:41:43;17.80;99.90
42913;DHT22;50720;54.324;18.558;2023-06-19T04:44:15;17.80;99.90
42913;DHT22;50720;54.324;18.558;2023-06-19T04:46:44;18.00;99.90
42913;DHT22;50720;54.324;18.558;2023-06-19T04:49:13;18.20;99.90
42913;DHT22;50720;54.324;18.558;2023-06-19T04:51:42;18.20;99.90
42913;DHT22;50720;54.324;18.558;2023-06-19T04:54:12;18.30;99.90
42913;DHT22;50720;54.324;18.558;2023-06-19T04:56:41;18.40;99.90
42913;DHT22;50720;54.324;18.558;2023-06-19T04:59:10;18.60;99.90
42913;DHT22;50720;54.324;18.558;2023-06-19T05:01:41;18.70;99.90
42913;DHT22;50720;54.324;18.558;2023-06-19T05:04:10;18.80;99.90
42913;DHT22;50720;54.324;18.558;2023-06-19T05:06:39;18.80;99.90
42913;DHT22;50720;54.324;18.558;2023-06-19T05:09:11;18.80;99.90
42913;DHT22;50720;54.324;18.558;2023-06-19T05:11:40;18.90;99.90
42913;DHT22;50720;54.324;18.558;2023-06-19T05:14:10;18.90;99.90
42913;DHT22;50720;54.324;18.558;2023-06-19T05:16:39;19.00;99.90
42913;DHT22;50720;54.324;18.558;2023-06-19T05:19:10;19.10;99.90
42913;DHT22;50720;54.324;18.558;2023-06-19T05:21:39;19.10;99.90
42913;DHT22;50720;54.324;18.558;2023-06-19T05:24:09;19.20;99.90
42913;DHT22;50720;54.324;18.558;2023-06-19T05:26:38;19.30;99.90
42913;DHT22;50720;54.324;18.558;2023-06-19T05:29:07;19.40;99.90
42913;DHT22;50720;54.324;18.558;2023-06-19T05:31:37;19.50;99.90
42913;DHT22;50720;54.324;18.558;2023-06-19T05:34:06;19.60;99.90
42913;DHT22;50720;54.324;18.558;2023-06-19T05:36:36;19.60;99.90
42913;DHT22;50720;54.324;18.558;2023-06-19T05:39:06;19.60;99.90
42913;DHT22;50720;54.324;18.558;2023-06-19T05:41:35;19.60;99.90
42913;DHT22;50720;54.324;18.558;2023-06-19T05:44:05;19.70;99.90
42913;DHT22;50720;54.324;18.558;2023-06-19T05:46:33;19.70;99.90
42913;DHT22;50720;54.324;18.558;2023-06-19T05:49:03;19.70;99.90
42913;DHT22;50720;54.324;18.558;2023-06-19T05:51:32;19.70;99.90
42913;DHT22;50720;54.324;18.558;2023-06-19T05:54:03;19.80;99.90
42913;DHT22;50720;54.324;18.558;2023-06-19T05:56:32;19.70;99.90
42913;DHT22;50720;54.324;18.558;2023-06-19T05:59:02;19.90;99.90
42913;DHT22;50720;54.324;18.558;2023-06-19T06:01:31;20.00;99.90
42913;DHT22;50720;54.324;18.558;2023-06-19T06:04:00;20.00;99.90
42913;DHT22;50720;54.324;18.558;2023-06-19T06:06:30;20.00;99.90
42913;DHT22;50720;54.324;18.558;2023-06-19T06:09:00;20.20;99.90
42913;DHT22;50720;54.324;18.558;2023-06-19T06:11:30;20.20;99.90
42913;DHT22;50720;54.324;18.558;2023-06-19T06:14:00;20.30;99.90
42913;DHT22;50720;54.324;18.558;2023-06-19T06:16:29;20.50;99.90
42913;DHT22;50720;54.324;18.558;2023-06-19T06:18:59;20.50;99.90
42913;DHT22;50720;54.324;18.558;2023-06-19T06:21:28;20.70;99.90
42913;DHT22;50720;54.324;18.558;2023-06-19T06:23:57;20.70;99.90
42913;DHT22;50720;54.324;18.558;2023-06-19T06:26:26;20.70;99.90
42913;DHT22;50720;54.324;18.558;2023-06-19T06:28:58;20.70;99.90
42913;DHT22;50720;54.324;18.558;2023-06-19T06:31:27;20.90;99.90
42913;DHT22;50720;54.324;18.558;2023-06-19T06:33:56;20.90;99.90
42913;DHT22;50720;54.324;18.558;2023-06-19T06:36:26;21.00;99.90
42913;DHT22;50720;54.324;18.558;2023-06-19T06:39:03;21.00;99.90
42913;DHT22;50720;54.324;18.558;2023-06-19T06:41:33;21.10;99.90
42913;DHT22;50720;54.324;18.558;2023-06-19T06:44:04;21.30;99.90
42913;DHT22;50720;54.324;18.558;2023-06-19T06:46:33;21.30;99.90
42913;DHT22;50720;54.324;18.558;2023-06-19T06:49:03;21.40;99.90
42913;DHT22;50720;54.324;18.558;2023-06-19T06:51:32;21.50;99.90
42913;DHT22;50720;54.324;18.558;2023-06-19T06:54:01;21.60;99.90
42913;DHT22;50720;54.324;18.558;2023-06-19T06:56:31;21.60;99.90
42913;DHT22;50720;54.324;18.558;2023-06-19T06:59:00;21.80;99.90
42913;DHT22;50720;54.324;18.558;2023-06-19T07:01:31;21.90;99.90
42913;DHT22;50720;54.324;18.558;2023-06-19T07:04:00;22.00;99.90
42913;DHT22;50720;54.324;18.558;2023-06-19T07:06:30;22.00;99.90
42913;DHT22;50720;54.324;18.558;2023-06-19T07:08:59;22.10;99.90
42913;DHT22;50720;54.324;18.558;2023-06-19T07:11:28;22.10;99.90
42913;DHT22;50720;54.324;18.558;2023-06-19T07:13:58;22.20;99.90
42913;DHT22;50720;54.324;18.558;2023-06-19T07:16:26;22.10;99.90
42913;DHT22;50720;54.324;18.558;2023-06-19T07:18:57;22.20;99.90
42913;DHT22;50720;54.324;18.558;2023-06-19T07:21:26;22.40;99.90
42913;DHT22;50720;54.324;18.558;2023-06-19T07:23:57;22.50;99.90
42913;DHT22;50720;54.324;18.558;2023-06-19T07:26:26;22.50;99.90
42913;DHT22;50720;54.324;18.558;2023-06-19T07:28:55;22.60;99.90
42913;DHT22;50720;54.324;18.558;2023-06-19T07:31:25;22.60;99.90
42913;DHT22;50720;54.324;18.558;2023-06-19T07:33:54;22.50;99.90
42913;DHT22;50720;54.324;18.558;2023-06-19T07:36:25;22.50;99.90
42913;DHT22;50720;54.324;18.558;2023-06-19T07:38:54;22.60;99.90
42913;DHT22;50720;54.324;18.558;2023-06-19T07:41:23;22.60;99.90
42913;DHT22;50720;54.324;18.558;2023-06-19T07:43:53;22.70;99.90
42913;DHT22;50720;54.324;18.558;2023-06-19T07:46:24;22.60;99.90
42913;DHT22;50720;54.324;18.558;2023-06-19T07:48:53;22.60;99.90
42913;DHT22;50720;54.324;18.558;2023-06-19T07:51:22;22.60;99.90
42913;DHT22;50720;54.324;18.558;2023-06-19T07:53:53;22.70;99.90
42913;DHT22;50720;54.324;18.558;2023-06-19T07:56:22;22.90;99.90
42913;DHT22;50720;54.324;18.558;2023-06-19T07:58:52;23.10;99.90
42913;DHT22;50720;54.324;18.558;2023-06-19T08:01:21;23.30;99.90
42913;DHT22;50720;54.324;18.558;2023-06-19T08:03:50;23.50;99.90
42913;DHT22;50720;54.324;18.558;2023-06-19T08:06:20;23.50;99.90
42913;DHT22;50720;54.324;18.558;2023-06-19T08:08:49;23.80;99.90
42913;DHT22;50720;54.324;18.558;2023-06-19T08:11:20;23.90;99.90
42913;DHT22;50720;54.324;18.558;2023-06-19T08:13:49;24.30;99.90
42913;DHT22;50720;54.324;18.558;2023-06-19T08:16:18;24.40;99.90
42913;DHT22;50720;54.324;18.558;2023-06-19T08:18:48;24.40;99.90
42913;DHT22;50720;54.324;18.558;2023-06-19T08:21:17;24.40;99.90
42913;DHT22;50720;54.324;18.558;2023-06-19T08:23:48;24.30;99.90
42913;DHT22;50720;54.324;18.558;2023-06-19T08:26:17;24.00;99.90
42913;DHT22;50720;54.324;18.558;2023-06-19T08:28:50;24.10;99.90
42913;DHT22;50720;54.324;18.558;2023-06-19T08:31:20;24.20;99.90
42913;DHT22;50720;54.324;18.558;2023-06-19T08:33:55;24.30;99.90
42913;DHT22;50720;54.324;18.558;2023-06-19T08:36:24;24.20;99.90
42913;DHT22;50720;54.324;18.558;2023-06-19T08:38:53;24.30;99.90
42913;DHT22;50720;54.324;18.558;2023-06-19T08:41:22;24.50;99.90
42913;DHT22;50720;54.324;18.558;2023-06-19T08:43:53;24.40;99.90
42913;DHT22;50720;54.324;18.558;2023-06-19T08:46:22;24.20;99.90
42913;DHT22;50720;54.324;18.558;2023-06-19T08:48:54;24.20;99.90
42913;DHT22;50720;54.324;18.558;2023-06-19T08:51:23;24.50;99.90
42913;DHT22;50720;54.324;18.558;2023-06-19T08:53:55;24.80;99.90
42913;DHT22;50720;54.324;18.558;2023-06-19T08:56:24;25.00;99.90
42913;DHT22;50720;54.324;18.558;2023-06-19T08:58:55;25.00;99.90
42913;DHT22;50720;54.324;18.558;2023-06-19T09:01:23;24.70;99.90
42913;DHT22;50720;54.324;18.558;2023-06-19T09:03:55;24.60;99.90
42913;DHT22;50720;54.324;18.558;2023-06-19T09:06:24;24.60;99.90
42913;DHT22;50720;54.324;18.558;2023-06-19T09:08:57;24.60;99.90
42913;DHT22;50720;54.324;18.558;2023-06-19T09:11:27;24.80;99.90
42913;DHT22;50720;54.324;18.558;2023-06-19T09:13:58;24.90;99.90
42913;DHT22;50720;54.324;18.558;2023-06-19T09:16:36;25.10;99.90
42913;DHT22;50720;54.324;18.558;2023-06-19T09:19:06;25.30;99.90
42913;DHT22;50720;54.324;18.558;2023-06-19T09:21:35;25.10;99.90
42913;DHT22;50720;54.324;18.558;2023-06-19T09:24:05;24.80;99.90
42913;DHT22;50720;54.324;18.558;2023-06-19T09:26:35;24.70;99.90
42913;DHT22;50720;54.324;18.558;2023-06-19T09:29:13;24.60;99.90
42913;DHT22;50720;54.324;18.558;2023-06-19T09:31:47;24.60;99.90
42913;DHT22;50720;54.324;18.558;2023-06-19T09:34:16;25.00;99.90
42913;DHT22;50720;54.324;18.558;2023-06-19T09:36:45;25.00;99.90
42913;DHT22;50720;54.324;18.558;2023-06-19T09:39:15;25.10;99.90
42913;DHT22;50720;54.324;18.558;2023-06-19T09:41:45;25.40;99.90
42913;DHT22;50720;54.324;18.558;2023-06-19T09:44:17;25.40;99.90
42913;DHT22;50720;54.324;18.558;2023-06-19T09:46:49;25.30;99.90
42913;DHT22;50720;54.324;18.558;2023-06-19T09:49:20;25.30;99.90
42913;DHT22;50720;54.324;18.558;2023-06-19T09:51:51;25.00;99.90
42913;DHT22;50720;54.324;18.558;2023-06-19T09:54:20;25.00;99.90
42913;DHT22;50720;54.324;18.558;2023-06-19T09:56:50;24.90;99.90
42913;DHT22;50720;54.324;18.558;2023-06-19T09:59:24;24.80;99.90
42913;DHT22;50720;54.324;18.558;2023-06-19T10:01:54;24.80;99.90
42913;DHT22;50720;54.324;18.558;2023-06-19T10:04:23;24.90;99.90
42913;DHT22;50720;54.324;18.558;2023-06-19T10:06:52;25.20;99.90
42913;DHT22;50720;54.324;18.558;2023-06-19T10:09:25;25.10;99.90
42913;DHT22;50720;54.324;18.558;2023-06-19T10:12:00;24.90;99.90
42913;DHT22;50720;54.324;18.558;2023-06-19T10:14:46;25.00;99.90
42913;DHT22;50720;54.324;18.558;2023-06-19T10:17:16;25.10;99.90
42913;DHT22;50720;54.324;18.558;2023-06-19T10:19:49;25.40;99.90
42913;DHT22;50720;54.324;18.558;2023-06-19T10:22:19;25.70;99.90
42913;DHT22;50720;54.324;18.558;2023-06-19T10:24:50;25.30;99.90
42913;DHT22;50720;54.324;18.558;2023-06-19T10:27:20;25.00;99.90
42913;DHT22;50720;54.324;18.558;2023-06-19T10:29:53;25.20;99.90
42913;DHT22;50720;54.324;18.558;2023-06-19T10:32:41;25.10;99.90
42913;DHT22;50720;54.324;18.558;2023-06-19T10:35:11;25.00;99.90
42913;DHT22;50720;54.324;18.558;2023-06-19T10:37:41;25.00;99.90
42913;DHT22;50720;54.324;18.558;2023-06-19T10:40:10;25.00;99.90
42913;DHT22;50720;54.324;18.558;2023-06-19T10:42:40;25.40;99.90
42913;DHT22;50720;54.324;18.558;2023-06-19T10:45:11;25.60;99.90
42913;DHT22;50720;54.324;18.558;2023-06-19T10:47:43;26.00;99.90
42913;DHT22;50720;54.324;18.558;2023-06-19T10:50:13;26.30;99.90
42913;DHT22;50720;54.324;18.558;2023-06-19T10:52:43;26.70;99.90
42913;DHT22;50720;54.324;18.558;2023-06-19T10:55:13;27.20;99.90
42913;DHT22;50720;54.324;18.558;2023-06-19T10:57:44;27.70;99.90
42913;DHT22;50720;54.324;18.558;2023-06-19T11:00:24;28.40;99.90
42913;DHT22;50720;54.324;18.558;2023-06-19T11:02:53;28.90;99.90
42913;DHT22;50720;54.324;18.558;2023-06-19T11:05:24;29.90;99.90
42913;DHT22;50720;54.324;18.558;2023-06-19T11:07:54;30.20;99.90
42913;DHT22;50720;54.324;18.558;2023-06-19T11:10:24;29.80;99.90
42913;DHT22;50720;54.324;18.558;2023-06-19T11:12:53;29.70;99.30
42913;DHT22;50720;54.324;18.558;2023-06-19T11:15:31;29.40;99.90
42913;DHT22;50720;54.324;18.558;2023-06-19T11:18:01;29.20;99.90
42913;DHT22;50720;54.324;18.558;2023-06-19T11:20:31;28.70;99.90
42913;DHT22;50720;54.324;18.558;2023-06-19T11:23:11;28.20;99.90
42913;DHT22;50720;54.324;18.558;2023-06-19T11:25:41;27.60;99.90
42913;DHT22;50720;54.324;18.558;2023-06-19T11:28:11;27.20;99.90
42913;DHT22;50720;54.324;18.558;2023-06-19T11:30:43;27.10;99.90
42913;DHT22;50720;54.324;18.558;2023-06-19T11:33:16;26.80;99.90
42913;DHT22;50720;54.324;18.558;2023-06-19T11:35:50;26.40;99.90
42913;DHT22;50720;54.324;18.558;2023-06-19T11:38:20;26.20;99.90
42913;DHT22;50720;54.324;18.558;2023-06-19T11:40:50;25.90;99.90
42913;DHT22;50720;54.324;18.558;2023-06-19T11:43:25;25.70;99.90
42913;DHT22;50720;54.324;18.558;2023-06-19T11:46:01;25.60;99.90
42913;DHT22;50720;54.324;18.558;2023-06-19T11:48:30;25.50;99.90
42913;DHT22;50720;54.324;18.558;2023-06-19T11:51:00;25.20;99.90
42913;DHT22;50720;54.324;18.558;2023-06-19T11:53:29;25.40;99.90
42913;DHT22;50720;54.324;18.558;2023-06-19T11:55:58;26.00;99.90
42913;DHT22;50720;54.324;18.558;2023-06-19T11:58:27;27.20;99.90
42913;DHT22;50720;54.324;18.558;2023-06-19T12:00:57;28.30;99.90
42913;DHT22;50720;54.324;18.558;2023-06-19T12:03:27;29.20;99.90
42913;DHT22;50720;54.324;18.558;2023-06-19T12:05:57;30.00;99.90
42913;DHT22;50720;54.324;18.558;2023-06-19T12:08:26;30.30;99.40
42913;DHT22;50720;54.324;18.558;2023-06-19T12:10:55;30.50;99.20
42913;DHT22;50720;54.324;18.558;2023-06-19T12:13:24;30.00;96.60
42913;DHT22;50720;54.324;18.558;2023-06-19T12:15:54;29.70;95.90
42913;DHT22;50720;54.324;18.558;2023-06-19T12:18:23;30.20;97.10
42913;DHT22;50720;54.324;18.558;2023-06-19T12:20:54;31.00;95.10
42913;DHT22;50720;54.324;18.558;2023-06-19T12:23:23;31.30;93.30
42913;DHT22;50720;54.324;18.558;2023-06-19T12:25:52;31.30;93.60
42913;DHT22;50720;54.324;18.558;2023-06-19T12:28:21;30.90;91.80
42913;DHT22;50720;54.324;18.558;2023-06-19T12:30:53;30.40;91.80
42913;DHT22;50720;54.324;18.558;2023-06-19T12:33:23;29.40;93.80
42913;DHT22;50720;54.324;18.558;2023-06-19T12:35:55;29.00;96.00
42913;DHT22;50720;54.324;18.558;2023-06-19T12:38:24;28.50;97.00
42913;DHT22;50720;54.324;18.558;2023-06-19T12:40:54;28.20;97.60
42913;DHT22;50720;54.324;18.558;2023-06-19T12:43:23;28.00;98.00
42913;DHT22;50720;54.324;18.558;2023-06-19T12:45:52;27.60;98.80
42913;DHT22;50720;54.324;18.558;2023-06-19T12:48:21;27.20;99.80
42913;DHT22;50720;54.324;18.558;2023-06-19T12:50:51;27.00;99.90
42913;DHT22;50720;54.324;18.558;2023-06-19T12:53:21;26.70;99.90
42913;DHT22;50720;54.324;18.558;2023-06-19T12:55:55;26.60;99.90
42913;DHT22;50720;54.324;18.558;2023-06-19T12:58:31;26.50;99.90
42913;DHT22;50720;54.324;18.558;2023-06-19T13:01:00;26.40;99.90
42913;DHT22;50720;54.324;18.558;2023-06-19T13:03:29;26.30;99.90
42913;DHT22;50720;54.324;18.558;2023-06-19T13:05:59;26.40;99.90
42913;DHT22;50720;54.324;18.558;2023-06-19T13:08:29;26.60;99.90
42913;DHT22;50720;54.324;18.558;2023-06-19T13:10:58;26.60;99.90
42913;DHT22;50720;54.324;18.558;2023-06-19T13:13:27;26.60;99.90
42913;DHT22;50720;54.324;18.558;2023-06-19T13:15:57;26.60;99.90
42913;DHT22;50720;54.324;18.558;2023-06-19T13:18:26;26.60;99.90
42913;DHT22;50720;54.324;18.558;2023-06-19T13:20:55;26.30;99.90
42913;DHT22;50720;54.324;18.558;2023-06-19T13:23:24;26.20;99.90
42913;DHT22;50720;54.324;18.558;2023-06-19T13:25:55;25.90;99.90
42913;DHT22;50720;54.324;18.558;2023-06-19T13:28:24;25.80;99.90
42913;DHT22;50720;54.324;18.558;2023-06-19T13:30:53;25.60;99.90
42913;DHT22;50720;54.324;18.558;2023-06-19T13:33:22;25.40;99.90
42913;DHT22;50720;54.324;18.558;2023-06-19T13:35:51;25.20;99.90
42913;DHT22;50720;54.324;18.558;2023-06-19T13:38:21;25.10;99.90
42913;DHT22;50720;54.324;18.558;2023-06-19T13:40:50;25.10;99.90
42913;DHT22;50720;54.324;18.558;2023-06-19T13:43:21;25.30;99.90
42913;DHT22;50720;54.324;18.558;2023-06-19T13:45:51;25.80;99.90
42913;DHT22;50720;54.324;18.558;2023-06-19T13:48:20;26.20;99.90
42913;DHT22;50720;54.324;18.558;2023-06-19T13:50:49;26.20;99.90
42913;DHT22;50720;54.324;18.558;2023-06-19T13:53:18;26.20;99.90
42913;DHT22;50720;54.324;18.558;2023-06-19T13:55:49;26.20;99.90
42913;DHT22;50720;54.324;18.558;2023-06-19T13:58:21;26.30;99.90
42913;DHT22;50720;54.324;18.558;2023-06-19T14:00:51;26.40;99.90
42913;DHT22;50720;54.324;18.558;2023-06-19T14:03:20;26.60;99.90
42913;DHT22;50720;54.324;18.558;2023-06-19T14:05:50;26.80;99.90
42913;DHT22;50720;54.324;18.558;2023-06-19T14:08:19;26.70;99.90
42913;DHT22;50720;54.324;18.558;2023-06-19T14:10:48;26.80;99.90
42913;DHT22;50720;54.324;18.558;2023-06-19T14:13:17;26.70;99.90
42913;DHT22;50720;54.324;18.558;2023-06-19T14:15:48;27.00;99.90
42913;DHT22;50720;54.324;18.558;2023-06-19T14:18:18;27.10;99.90
42913;DHT22;50720;54.324;18.558;2023-06-19T14:20:47;27.50;99.90
42913;DHT22;50720;54.324;18.558;2023-06-19T14:23:17;27.60;99.90
42913;DHT22;50720;54.324;18.558;2023-06-19T14:25:46;28.00;99.90
42913;DHT22;50720;54.324;18.558;2023-06-19T14:28:15;28.00;99.90
42913;DHT22;50720;54.324;18.558;2023-06-19T14:30:44;28.00;99.90
42913;DHT22;50720;54.324;18.558;2023-06-19T14:33:15;28.00;99.90
42913;DHT22;50720;54.324;18.558;2023-06-19T14:35:45;27.90;99.90
42913;DHT22;50720;54.324;18.558;2023-06-19T14:38:16;28.00;99.90
42913;DHT22;50720;54.324;18.558;2023-06-19T14:40:46;28.00;99.90
42913;DHT22;50720;54.324;18.558;2023-06-19T14:43:15;28.00;99.90
42913;DHT22;50720;54.324;18.558;2023-06-19T14:45:44;28.10;99.90
42913;DHT22;50720;54.324;18.558;2023-06-19T14:48:15;28.10;99.90
42913;DHT22;50720;54.324;18.558;2023-06-19T14:50:44;27.90;99.90
42913;DHT22;50720;54.324;18.558;2023-06-19T14:53:13;27.80;99.90
42913;DHT22;50720;54.324;18.558;2023-06-19T14:55:43;28.00;99.90
42913;DHT22;50720;54.324;18.558;2023-06-19T14:58:14;28.20;99.90
42913;DHT22;50720;54.324;18.558;2023-06-19T15:00:43;28.70;99.90
42913;DHT22;50720;54.324;18.558;2023-06-19T15:03:13;29.30;99.90
42913;DHT22;50720;54.324;18.558;2023-06-19T15:05:44;29.80;99.90
42913;DHT22;50720;54.324;18.558;2023-06-19T15:08:13;30.10;99.90
42913;DHT22;50720;54.324;18.558;2023-06-19T15:10:48;30.20;99.90
42913;DHT22;50720;54.324;18.558;2023-06-19T15:13:18;30.30;99.90
42913;DHT22;50720;54.324;18.558;2023-06-19T15:15:47;30.40;99.90
42913;DHT22;50720;54.324;18.558;2023-06-19T15:18:18;30.20;99.90
42913;DHT22;50720;54.324;18.558;2023-06-19T15:20:49;30.20;99.90
42913;DHT22;50720;54.324;18.558;2023-06-19T15:23:19;30.00;99.90
42913;DHT22;50720;54.324;18.558;2023-06-19T15:25:49;29.60;99.90
42913;DHT22;50720;54.324;18.558;2023-06-19T15:28:19;29.30;99.90
42913;DHT22;50720;54.324;18.558;2023-06-19T15:30:49;29.30;99.90
42913;DHT22;50720;54.324;18.558;2023-06-19T15:33:19;28.90;99.90